Time;durP1;ratioP1;P1;durP2;ratioP2;P2;SDS_P1;SDS_P2;PMS_P1;PMS_P2;Temp;Humidity;BMP_temperature;BMP_pressure;BME280_temperature;BME280_humidity;BME280_pressure;Samples;Min_cycle;Max_cycle;Signal;HPM_P1;HPM_P2
2023/01/02 00:02:03;;;;;;;6.43;5.83;;;12.70;1.00;;;;;;6281993;28;20241;-56
2023/01/02 00:05:06;;;;;;;10.47;7.60;;;12.70;1.00;;;;;;6273477;28;20244;-56
2023/01/02 00:08:09;;;;;;;12.37;7.77;;;12.60;1.00;;;;;;6278955;28;20338;-56
2023/01/02 00:11:12;;;;;;;8.40;7.07;;;12.60;1.00;;;;;;6282397;28;20233;-56
2023/01/02 00:14:15;;;;;;;12.13;8.40;;;12.60;1.00;;;;;;6277078;28;20244;-57
2023/01/02 00:17:19;;;;;;;11.97;8.30;;;12.60;1.00;;;;;;6258158;28;20737;-56
2023/01/02 00:20:22;;;;;;;8.30;7.23;;;12.60;1.00;;;;;;6257877;28;20707;-57
2023/01/02 00:23:25;;;;;;;11.27;7.47;;;12.50;1.00;;;;;;6258157;28;20521;-55
2023/01/02 00:26:29;;;;;;;7.93;7.00;;;12.50;1.00;;;;;;6258188;28;20241;-56
2023/01/02 00:29:32;;;;;;;7.33;6.73;;;12.50;1.00;;;;;;6257930;28;20310;-56
2023/01/02 00:32:37;;;;;;;8.87;6.57;;;12.50;1.00;;;;;;6273557;28;20261;-56
2023/01/02 00:35:40;;;;;;;7.67;6.87;;;12.50;1.00;;;;;;6281634;28;20322;-56
2023/01/02 00:38:43;;;;;;;7.50;6.77;;;12.50;1.00;;;;;;6278476;28;20607;-56
2023/01/02 00:41:46;;;;;;;10.67;7.67;;;12.50;1.00;;;;;;6271508;28;20253;-56
2023/01/02 00:44:49;;;;;;;11.47;8.50;;;12.40;1.00;;;;;;6258322;28;20303;-56
2023/01/02 00:47:53;;;;;;;16.73;9.23;;;12.40;1.00;;;;;;6257559;28;20238;-56
2023/01/02 00:50:56;;;;;;;11.07;8.97;;;12.40;1.00;;;;;;6267085;28;20441;-54
2023/01/02 00:53:59;;;;;;;14.97;9.80;;;12.40;1.00;;;;;;6278506;28;20233;-56
2023/01/02 00:57:02;;;;;;;15.00;10.10;;;12.40;1.00;;;;;;6282242;28;20236;-56
2023/01/02 01:00:07;;;;;;;12.77;9.23;;;12.40;1.00;;;;;;6274566;28;20247;-57
2023/01/02 01:03:11;;;;;;;15.20;9.70;;;12.40;1.00;;;;;;6284580;28;20229;-56
2023/01/02 01:06:14;;;;;;;15.63;9.33;;;12.40;1.00;;;;;;6270907;28;20694;-56
2023/01/02 01:09:17;;;;;;;12.90;10.37;;;12.40;1.00;;;;;;6281803;28;20237;-56
2023/01/02 01:12:20;;;;;;;14.10;9.87;;;12.30;1.00;;;;;;6282729;28;20229;-56
2023/01/02 01:15:23;;;;;;;11.97;9.07;;;12.30;1.00;;;;;;6281520;28;20237;-55
2023/01/02 01:18:28;;;;;;;13.10;7.30;;;12.30;1.00;;;;;;6282235;28;20404;-56
2023/01/02 01:21:31;;;;;;;8.00;7.20;;;12.30;1.00;;;;;;6269476;28;20590;-56
2023/01/02 01:24:34;;;;;;;9.80;7.47;;;12.30;1.00;;;;;;6256685;28;20237;-57
2023/01/02 01:27:37;;;;;;;11.80;7.50;;;12.30;1.00;;;;;;6257173;28;20290;-56
2023/01/02 01:30:39;;;;;;;10.00;6.97;;;12.30;1.00;;;;;;6258162;28;20230;-57
2023/01/02 01:33:45;;;;;;;6.87;6.27;;;12.30;1.00;;;;;;6284746;28;20714;-56
2023/01/02 01:36:48;;;;;;;9.13;6.13;;;12.30;1.00;;;;;;6281693;28;20241;-56
2023/01/02 01:39:51;;;;;;;7.07;6.20;;;12.40;1.00;;;;;;6280560;28;20793;-57
2023/01/02 01:42:58;;;;;;;7.13;6.47;;;12.30;1.00;;;;;;6281919;28;20237;-56
2023/01/02 01:46:04;;;;;;;7.87;6.03;;;12.50;1.00;;;;;;6281637;28;20911;-56
2023/01/02 01:49:13;;;;;;;7.93;6.10;;;12.30;1.00;;;;;;6266386;28;20328;-56
2023/01/02 01:52:21;;;;;;;16.13;6.60;;;12.30;1.00;;;;;;6286634;28;20298;-56
2023/01/02 01:55:29;;;;;;;12.30;6.63;;;12.30;1.00;;;;;;6286932;28;20233;-56
2023/01/02 01:58:36;;;;;;;9.47;6.67;;;12.30;1.00;;;;;;6265476;28;20245;-56
2023/01/02 02:01:41;;;;;;;10.10;6.67;;;12.30;1.00;;;;;;6280109;28;20232;-56
2023/01/02 02:04:46;;;;;;;8.57;6.60;;;12.30;1.00;;;;;;6277402;28;20726;-56
2023/01/02 02:07:56;;;;;;;10.00;6.40;;;12.30;1.00;;;;;;6285255;28;20555;-55
2023/01/02 02:10:59;;;;;;;12.60;6.20;;;12.20;1.00;;;;;;6285062;28;20238;-56
2023/01/02 02:14:02;;;;;;;7.80;6.47;;;12.20;1.00;;;;;;6271291;28;20242;-55
2023/01/02 02:17:15;;;;;;;9.03;7.10;;;12.20;1.00;;;;;;6261200;28;20871;-56
2023/01/02 02:20:40;;;;;;;10.03;6.10;;;12.20;1.00;;;;;;6260662;28;20246;-56
2023/01/02 02:24:22;;;;;;;6.93;6.33;;;12.20;1.00;;;;;;6260607;28;20711;-56
2023/01/02 02:27:51;;;;;;;7.83;5.93;;;12.20;1.00;;;;;;6221143;28;20695;-56
2023/01/02 02:31:02;;;;;;;7.00;6.40;;;12.20;1.00;;;;;;6260276;28;20252;-56
2023/01/02 02:34:15;;;;;;;10.40;7.13;;;12.30;1.00;;;;;;6288253;28;20255;-56
2023/01/02 02:37:24;;;;;;;6.77;6.27;;;12.20;1.00;;;;;;6285662;28;20240;-55
2023/01/02 02:40:37;;;;;;;8.70;7.13;;;12.30;1.00;;;;;;6284340;28;20221;-56
2023/01/02 02:43:49;;;;;;;7.43;6.73;;;12.20;1.00;;;;;;6285828;28;20603;-56
2023/01/02 02:46:58;;;;;;;7.03;5.70;;;12.20;1.00;;;;;;6284699;28;20692;-55
2023/01/02 02:50:08;;;;;;;14.23;6.97;;;12.30;1.00;;;;;;6271938;28;20268;-56
2023/01/02 02:53:18;;;;;;;9.37;6.17;;;12.30;1.00;;;;;;6260126;28;20240;-56
2023/01/02 02:56:23;;;;;;;6.27;5.60;;;12.50;1.00;;;;;;6259792;28;20591;-56
2023/01/02 02:59:27;;;;;;;8.10;6.10;;;12.60;1.00;;;;;;6249167;28;20242;-57
2023/01/02 03:02:32;;;;;;;6.80;5.83;;;12.70;1.00;;;;;;6276643;28;20230;-57
2023/01/02 03:05:38;;;;;;;9.70;6.10;;;12.80;1.00;;;;;;6276833;28;20233;-56
2023/01/02 03:08:51;;;;;;;7.17;5.63;;;12.80;1.00;;;;;;6284361;28;20243;-56
2023/01/02 03:12:01;;;;;;;6.27;5.63;;;12.80;1.00;;;;;;6265754;28;20612;-56
2023/01/02 03:15:16;;;;;;;6.27;5.67;;;12.80;1.00;;;;;;6260465;28;20245;-56
2023/01/02 03:18:29;;;;;;;6.00;5.37;;;12.80;1.00;;;;;;6263461;28;20233;-56
2023/01/02 03:21:36;;;;;;;6.40;5.67;;;12.90;1.00;;;;;;6261401;28;20322;-56
2023/01/02 03:24:41;;;;;;;6.97;5.70;;;12.80;1.00;;;;;;6256795;28;20241;-56
2023/01/02 03:27:45;;;;;;;6.73;6.13;;;12.90;1.00;;;;;;6260840;28;20594;-56
2023/01/02 03:30:51;;;;;;;7.63;5.73;;;12.90;1.00;;;;;;6259864;28;20229;-57
2023/01/02 03:34:01;;;;;;;9.47;6.70;;;12.90;1.00;;;;;;6286757;28;20239;-56
2023/01/02 03:37:08;;;;;;;10.03;6.73;;;12.90;1.00;;;;;;6281641;28;20237;-56
2023/01/02 03:40:15;;;;;;;10.77;6.20;;;12.80;1.00;;;;;;6281408;28;20232;-55
2023/01/02 03:43:23;;;;;;;8.03;6.63;;;12.90;1.00;;;;;;6284756;28;20248;-56
2023/01/02 03:46:32;;;;;;;13.43;7.23;;;12.90;1.00;;;;;;6275456;28;20260;-56
2023/01/02 03:49:40;;;;;;;7.77;6.73;;;13.00;1.00;;;;;;6281968;28;20234;-54
2023/01/02 03:52:43;;;;;;;8.80;6.80;;;13.00;1.00;;;;;;6283603;28;20233;-56
2023/01/02 03:55:59;;;;;;;10.03;7.47;;;13.00;1.00;;;;;;6284523;28;20237;-55
2023/01/02 03:59:09;;;;;;;8.30;7.13;;;13.00;1.00;;;;;;6283376;28;20237;-56
2023/01/02 04:02:16;;;;;;;12.23;7.60;;;13.00;1.00;;;;;;6285224;28;20233;-56
2023/01/02 04:05:27;;;;;;;8.10;7.37;;;13.00;1.00;;;;;;6279839;28;20825;-55
2023/01/02 04:08:36;;;;;;;7.33;6.63;;;13.00;1.00;;;;;;6277993;28;20762;-55
2023/01/02 04:11:42;;;;;;;7.03;6.33;;;13.00;1.00;;;;;;6259883;28;20241;-56
2023/01/02 04:14:49;;;;;;;7.60;6.73;;;13.00;1.00;;;;;;6260511;28;20510;-58
2023/01/02 04:17:57;;;;;;;10.17;7.00;;;13.00;1.00;;;;;;6259034;28;20742;-56
2023/01/02 04:21:06;;;;;;;10.17;7.17;;;13.00;1.00;;;;;;6259162;28;20225;-56
2023/01/02 04:24:13;;;;;;;6.70;6.13;;;13.00;1.00;;;;;;6258746;28;20234;-56
2023/01/02 04:27:21;;;;;;;6.80;6.20;;;13.00;1.00;;;;;;6259632;28;20237;-56
2023/01/02 04:30:25;;;;;;;7.10;6.57;;;13.00;1.00;;;;;;6259755;28;20234;-56
2023/01/02 04:33:31;;;;;;;6.93;6.30;;;13.00;1.00;;;;;;6259842;28;20237;-61
2023/01/02 04:36:40;;;;;;;6.97;6.30;;;13.00;1.00;;;;;;6273911;28;20233;-56
2023/01/02 04:39:43;;;;;;;6.57;6.07;;;13.00;1.00;;;;;;6279861;28;20296;-57
2023/01/02 04:42:46;;;;;;;7.07;6.37;;;13.10;1.00;;;;;;6276405;28;20915;-56
2023/01/02 04:45:49;;;;;;;6.73;6.33;;;13.00;1.00;;;;;;6282674;28;20233;-56
2023/01/02 04:48:53;;;;;;;7.27;6.57;;;13.10;1.00;;;;;;6280807;28;20233;-56
2023/01/02 04:51:58;;;;;;;6.80;6.30;;;13.10;1.00;;;;;;6277246;28;20241;-56
2023/01/02 04:55:00;;;;;;;7.10;6.50;;;13.10;1.00;;;;;;6283388;28;20226;-55
2023/01/02 04:58:04;;;;;;;7.50;6.80;;;13.10;1.00;;;;;;6281714;28;20238;-56
2023/01/02 05:01:09;;;;;;;5.87;5.47;;;13.10;1.00;;;;;;6284373;28;20229;-57
2023/01/02 05:04:12;;;;;;;7.37;6.53;;;13.10;1.00;;;;;;6282566;28;20298;-56
2023/01/02 05:07:16;;;;;;;6.50;6.00;;;13.10;1.00;;;;;;6278950;28;20225;-55
2023/01/02 05:10:19;;;;;;;7.23;6.63;;;13.20;1.00;;;;;;6287038;28;20229;-57
2023/01/02 05:13:22;;;;;;;6.83;6.33;;;13.20;1.00;;;;;;6281508;28;20221;-56
2023/01/02 05:16:25;;;;;;;7.13;6.50;;;13.20;1.00;;;;;;6290725;28;20237;-57
2023/01/02 05:19:28;;;;;;;6.43;6.03;;;13.30;1.00;;;;;;6287353;28;20248;-56
2023/01/02 05:25:53;;;;;;;6.97;5.87;;;13.30;1.00;;;;;;6286478;28;20713;-56
2023/01/02 05:28:56;;;;;;;9.70;6.17;;;13.20;1.00;;;;;;6282950;28;20241;-57
2023/01/02 05:31:59;;;;;;;6.47;5.97;;;13.20;1.00;;;;;;6283084;28;20601;-57
2023/01/02 05:35:02;;;;;;;8.93;6.47;;;13.30;1.00;;;;;;6277309;28;20234;-57
2023/01/02 05:38:07;;;;;;;7.10;6.60;;;13.20;1.00;;;;;;6287614;28;20237;-56
2023/01/02 05:41:10;;;;;;;6.07;5.67;;;13.20;1.00;;;;;;6283930;28;20385;-56
2023/01/02 05:44:13;;;;;;;7.90;7.10;;;13.20;1.00;;;;;;6282801;28;20241;-55
2023/01/02 05:47:16;;;;;;;7.23;6.50;;;13.30;1.00;;;;;;6267555;28;20237;-56
2023/01/02 05:50:19;;;;;;;6.63;6.10;;;13.30;1.00;;;;;;6293310;28;20732;-56
2023/01/02 05:53:23;;;;;;;6.00;5.50;;;13.20;1.00;;;;;;6279969;28;20245;-56
2023/01/02 05:56:28;;;;;;;6.20;5.70;;;13.30;1.00;;;;;;6290803;28;20239;-58
2023/01/02 05:59:31;;;;;;;6.53;6.00;;;13.30;1.00;;;;;;6287606;28;20245;-56
2023/01/02 06:02:38;;;;;;;6.53;6.03;;;13.30;1.00;;;;;;6273821;28;20230;-55
2023/01/02 06:05:41;;;;;;;6.77;6.20;;;13.30;1.00;;;;;;6289985;28;20260;-56
2023/01/02 06:08:45;;;;;;;6.67;5.97;;;13.30;1.00;;;;;;6290062;28;20233;-52
2023/01/02 06:11:48;;;;;;;6.30;5.90;;;13.40;1.00;;;;;;6284911;28;20252;-56
2023/01/02 06:14:51;;;;;;;6.07;5.63;;;13.30;1.00;;;;;;6283929;28;20248;-56
2023/01/02 06:17:54;;;;;;;6.50;5.97;;;13.40;1.00;;;;;;6279458;28;20244;-56
2023/01/02 06:20:58;;;;;;;6.30;5.90;;;13.40;1.00;;;;;;6290309;28;20237;-56
2023/01/02 06:24:03;;;;;;;6.53;5.93;;;13.40;1.00;;;;;;6278051;28;20233;-56
2023/01/02 06:27:06;;;;;;;8.40;5.63;;;13.30;1.00;;;;;;6274602;28;20226;-55
2023/01/02 06:30:10;;;;;;;6.37;5.97;;;13.40;1.00;;;;;;6282908;28;20240;-56
2023/01/02 06:33:13;;;;;;;6.20;5.60;;;13.30;1.00;;;;;;6278240;28;20229;-56
2023/01/02 06:36:18;;;;;;;6.50;5.93;;;13.40;1.00;;;;;;6273384;28;20428;-57
2023/01/02 06:39:22;;;;;;;5.97;5.57;;;13.40;1.00;;;;;;6288771;28;20584;-56
2023/01/02 06:42:25;;;;;;;6.13;5.63;;;13.30;1.00;;;;;;6277523;28;20413;-56
2023/01/02 06:45:28;;;;;;;5.70;5.33;;;13.30;1.00;;;;;;6286768;28;20229;-56
2023/01/02 06:48:33;;;;;;;5.73;5.43;;;13.30;1.00;;;;;;6278357;28;20385;-57
2023/01/02 06:51:35;;;;;;;6.67;6.07;;;13.40;1.00;;;;;;6286715;28;20631;-55
2023/01/02 06:54:40;;;;;;;7.73;6.40;;;13.40;1.00;;;;;;6276869;28;20233;-56
2023/01/02 06:57:43;;;;;;;5.87;5.47;;;13.40;1.00;;;;;;6287602;28;20759;-56
2023/01/02 07:00:46;;;;;;;5.50;5.20;;;13.50;1.00;;;;;;6280190;28;20241;-58
2023/01/02 07:03:49;;;;;;;6.10;5.60;;;13.50;1.00;;;;;;6284716;28;20578;-57
2023/01/02 07:06:52;;;;;;;6.37;5.77;;;13.50;1.00;;;;;;6276752;28;20236;-57
2023/01/02 07:09:57;;;;;;;5.30;4.90;;;13.60;1.00;;;;;;6282451;28;20238;-56
2023/01/02 07:13:00;;;;;;;6.33;5.47;;;13.50;1.00;;;;;;6279945;28;20363;-53
2023/01/02 07:16:04;;;;;;;5.43;5.13;;;13.50;1.00;;;;;;6279667;28;20611;-56
2023/01/02 07:19:07;;;;;;;5.73;5.13;;;13.50;1.00;;;;;;6282579;28;20234;-56
2023/01/02 07:22:10;;;;;;;5.97;5.43;;;13.50;1.00;;;;;;6288273;28;20368;-56
2023/01/02 07:25:14;;;;;;;9.40;5.47;;;13.60;1.00;;;;;;6284254;28;20388;-57
2023/01/02 07:28:17;;;;;;;7.30;5.37;;;13.70;1.00;;;;;;6284343;28;20237;-56
2023/01/02 07:31:21;;;;;;;5.37;4.93;;;13.70;1.00;;;;;;6284293;28;20248;-56
2023/01/02 07:34:24;;;;;;;5.73;5.27;;;13.70;1.00;;;;;;6278105;28;20724;-55
2023/01/02 07:37:27;;;;;;;6.03;4.87;;;13.70;1.00;;;;;;6278791;28;20229;-56
2023/01/02 07:40:32;;;;;;;5.33;4.87;;;13.80;1.00;;;;;;6283013;28;20237;-57
2023/01/02 07:43:35;;;;;;;5.07;4.53;;;13.80;1.00;;;;;;6276566;28;20460;-56
2023/01/02 07:46:38;;;;;;;5.20;4.80;;;13.80;1.00;;;;;;6280094;28;20280;-56
2023/01/02 07:49:41;;;;;;;4.70;4.47;;;13.80;1.00;;;;;;6277257;28;20247;-55
2023/01/02 07:52:44;;;;;;;4.90;4.57;;;13.80;1.00;;;;;;6284253;28;20231;-56
2023/01/02 07:55:54;;;;;;;4.90;4.67;;;13.80;1.00;;;;;;6270485;28;20248;-57
2023/01/02 07:58:57;;;;;;;6.70;4.70;;;13.90;1.00;;;;;;6269906;28;20238;-56
2023/01/02 08:02:00;;;;;;;5.30;4.80;;;14.00;1.00;;;;;;6283807;28;20236;-55
2023/01/02 08:05:04;;;;;;;5.00;4.50;;;14.00;1.00;;;;;;6279762;28;20232;-56
2023/01/02 08:08:07;;;;;;;6.30;4.80;;;14.10;1.00;;;;;;6280403;28;20248;-59
2023/01/02 08:11:17;;;;;;;5.80;4.73;;;14.20;1.00;;;;;;6279526;28;20237;-56
2023/01/02 08:14:20;;;;;;;6.37;4.60;;;14.30;1.00;;;;;;6275431;28;20229;-55
2023/01/02 08:17:25;;;;;;;5.07;4.67;;;14.30;1.00;;;;;;6284135;28;20702;-56
2023/01/02 08:20:28;;;;;;;4.70;4.50;;;14.30;1.00;;;;;;6277405;28;20237;-56
2023/01/02 08:23:32;;;;;;;10.93;5.70;;;14.40;1.00;;;;;;6284694;28;20350;-56
2023/01/02 08:26:36;;;;;;;4.70;4.40;;;14.40;1.00;;;;;;6286790;28;20237;-56
2023/01/02 08:29:40;;;;;;;5.00;4.60;;;14.40;1.00;;;;;;6292083;28;20237;-55
2023/01/02 08:32:43;;;;;;;5.03;4.60;;;14.40;1.00;;;;;;6275135;28;20253;-57
2023/01/02 08:35:46;;;;;;;6.30;4.40;;;14.50;1.00;;;;;;6274001;28;20253;-56
2023/01/02 08:38:49;;;;;;;5.33;4.60;;;14.60;1.00;;;;;;6279000;28;20244;-56
2023/01/02 08:41:53;;;;;;;5.00;4.60;;;14.60;1.00;;;;;;6279257;28;20241;-56
2023/01/02 08:44:56;;;;;;;5.10;4.80;;;14.60;1.00;;;;;;6283121;28;20284;-57
2023/01/02 08:47:59;;;;;;;5.73;5.23;;;14.60;1.00;;;;;;6291135;28;20245;-57
2023/01/02 08:51:23;;;;;;;5.87;4.80;;;14.70;1.00;;;;;;6281014;28;20229;-57
2023/01/02 08:54:26;;;;;;;4.93;4.63;;;14.70;1.00;;;;;;6277811;28;20229;-59
2023/01/02 08:57:30;;;;;;;4.50;4.10;;;14.70;1.00;;;;;;6285906;28;20712;-56
2023/01/02 09:00:33;;;;;;;6.40;4.80;;;14.80;1.00;;;;;;6282668;28;20237;-56
2023/01/02 09:03:36;;;;;;;4.57;4.17;;;14.90;1.00;;;;;;6282660;28;20237;-57
2023/01/02 09:06:40;;;;;;;5.87;4.13;;;14.90;1.00;;;;;;6276592;28;20237;-56
2023/01/02 09:09:43;;;;;;;4.40;4.17;;;15.00;1.00;;;;;;6280723;28;20252;-56
2023/01/02 09:12:47;;;;;;;5.00;4.60;;;15.00;1.00;;;;;;6285231;28;20247;-56
2023/01/02 09:15:51;;;;;;;4.80;4.40;;;15.00;1.00;;;;;;6284462;28;20287;-56
2023/01/02 09:18:56;;;;;;;5.50;4.43;;;15.10;1.00;;;;;;6274698;28;20247;-56
2023/01/02 09:22:00;;;;;;;5.00;4.60;;;15.10;1.00;;;;;;6285864;28;20639;-57
2023/01/02 09:25:03;;;;;;;9.40;4.60;;;15.10;1.00;;;;;;6279133;28;20230;-57
2023/01/02 09:28:07;;;;;;;5.07;4.40;;;15.20;1.00;;;;;;6284817;28;20233;-56
2023/01/02 09:31:12;;;;;;;4.60;4.20;;;15.20;1.00;;;;;;6273546;28;20229;-56
2023/01/02 09:34:16;;;;;;;7.43;4.43;;;15.20;1.00;;;;;;6275341;28;20237;-56
2023/01/02 09:37:19;;;;;;;4.80;4.40;;;15.30;1.00;;;;;;6277655;28;20610;-55
2023/01/02 09:40:23;;;;;;;4.23;4.00;;;15.30;1.00;;;;;;6275200;28;20229;-57
2023/01/02 09:43:35;;;;;;;5.30;4.90;;;15.30;1.00;;;;;;6281307;28;20264;-57
2023/01/02 09:46:45;;;;;;;5.03;4.50;;;15.30;1.00;;;;;;6276592;28;20365;-58
2023/01/02 09:49:50;;;;;;;5.83;4.27;;;15.40;1.00;;;;;;6297280;28;20320;-56
2023/01/02 09:52:55;;;;;;;4.73;4.00;;;15.40;1.00;;;;;;6287861;28;20321;-56
2023/01/02 09:56:08;;;;;;;5.13;4.63;;;15.40;1.00;;;;;;6289062;28;20226;-55
2023/01/02 09:59:17;;;;;;;6.50;4.00;;;15.40;1.00;;;;;;6289469;28;20240;-55
2023/01/02 10:02:36;;;;;;;4.30;3.90;;;15.50;1.00;;;;;;6276027;28;20460;-56
2023/01/02 10:05:58;;;;;;;5.77;4.47;;;15.60;1.00;;;;;;6281399;28;20230;-55
2023/01/02 10:09:07;;;;;;;5.47;4.23;;;15.60;1.00;;;;;;6276399;28;20237;-55
2023/01/02 10:12:15;;;;;;;6.00;4.80;;;15.70;1.00;;;;;;6278566;28;20225;-56
2023/01/02 10:15:26;;;;;;;4.13;3.93;;;15.70;1.00;;;;;;6283050;28;20838;-55
2023/01/02 10:18:34;;;;;;;3.77;3.63;;;15.70;1.00;;;;;;6272553;28;20761;-56
2023/01/02 10:21:38;;;;;;;7.03;4.03;;;15.70;1.00;;;;;;6285680;28;20233;-56
2023/01/02 10:24:45;;;;;;;4.57;4.17;;;15.80;1.00;;;;;;6285304;28;20229;-56
2023/01/02 10:27:52;;;;;;;4.60;4.20;;;15.80;1.00;;;;;;6283904;28;20237;-56
2023/01/02 10:31:01;;;;;;;4.83;4.40;;;15.90;1.00;;;;;;6283266;28;20230;-56
2023/01/02 10:34:15;;;;;;;8.83;4.07;;;15.90;1.00;;;;;;6274366;28;20226;-57
2023/01/02 10:37:18;;;;;;;5.83;4.40;;;16.00;1.00;;;;;;6279701;28;20233;-56
2023/01/02 10:40:21;;;;;;;4.67;4.30;;;16.00;1.00;;;;;;6284023;28;20244;-57
2023/01/02 10:43:24;;;;;;;4.73;4.20;;;15.90;1.00;;;;;;6277517;28;20407;-56
2023/01/02 10:46:34;;;;;;;4.87;3.97;;;15.90;1.00;;;;;;6281646;28;20225;-57
2023/01/02 10:49:38;;;;;;;6.13;3.97;;;15.90;1.00;;;;;;6286376;28;20232;-55
2023/01/02 10:52:47;;;;;;;7.27;4.67;;;15.90;1.00;;;;;;6280875;28;20229;-57
2023/01/02 10:55:50;;;;;;;5.30;3.97;;;15.90;1.00;;;;;;6288084;28;20252;-57
2023/01/02 10:58:53;;;;;;;4.20;3.80;;;15.90;1.00;;;;;;6284644;28;20403;-57
2023/01/02 11:01:59;;;;;;;4.37;3.97;;;15.90;1.00;;;;;;6282414;28;20245;-56
2023/01/02 11:05:04;;;;;;;9.33;4.00;;;15.90;1.00;;;;;;6275894;28;20800;-56
2023/01/02 11:08:13;;;;;;;5.03;3.77;;;15.90;1.00;;;;;;6291292;28;20249;-56
2023/01/02 11:11:17;;;;;;;4.37;4.07;;;15.80;1.00;;;;;;6278016;28;20237;-56
2023/01/02 11:14:27;;;;;;;6.97;4.20;;;15.80;1.00;;;;;;6283261;28;20622;-56
2023/01/02 11:17:41;;;;;;;4.33;3.93;;;15.80;1.00;;;;;;6280298;28;20869;-56
2023/01/02 11:20:49;;;;;;;3.87;3.60;;;15.80;1.00;;;;;;6278038;28;20282;-56
2023/01/02 11:23:59;;;;;;;5.17;4.20;;;15.70;1.00;;;;;;6285485;28;20238;-56
2023/01/02 11:27:02;;;;;;;8.90;4.37;;;15.70;1.00;;;;;;6278680;28;20730;-56
2023/01/02 11:30:07;;;;;;;4.53;4.13;;;15.70;1.00;;;;;;6280998;28;20237;-57
2023/01/02 11:33:24;;;;;;;4.67;4.00;;;15.60;1.00;;;;;;6279504;28;20225;-56
2023/01/02 11:36:28;;;;;;;7.07;4.03;;;15.50;1.00;;;;;;6274982;28;20230;-58
2023/01/02 11:39:33;;;;;;;4.37;4.10;;;15.50;1.00;;;;;;6274532;28;20249;-55
2023/01/02 11:46:05;;;;;;;9.10;4.23;;;15.40;1.00;;;;;;6276150;28;20720;-55
2023/01/02 11:49:13;;;;;;;8.57;4.47;;;15.40;1.00;;;;;;6281430;28;20320;-56
2023/01/02 11:52:21;;;;;;;8.63;4.63;;;15.40;1.00;;;;;;6279259;28;20238;-56
2023/01/02 11:55:38;;;;;;;6.27;4.17;;;15.40;1.00;;;;;;6275831;28;20276;-56
2023/01/02 11:58:50;;;;;;;6.33;4.30;;;15.40;1.00;;;;;;6277334;28;20239;-56
2023/01/02 12:01:59;;;;;;;5.20;4.03;;;15.30;1.00;;;;;;6278810;28;20248;-57
2023/01/02 12:05:08;;;;;;;6.20;3.83;;;15.30;1.00;;;;;;6281952;28;20226;-58
2023/01/02 12:08:24;;;;;;;4.63;4.10;;;15.30;1.00;;;;;;6276236;28;20248;-56
2023/01/02 12:11:40;;;;;;;6.47;4.03;;;15.30;1.00;;;;;;6284428;28;20260;-56
2023/01/02 12:14:59;;;;;;;5.17;3.83;;;15.30;1.00;;;;;;6276976;28;20488;-55
2023/01/02 12:18:12;;;;;;;7.23;4.43;;;15.20;1.00;;;;;;6284265;28;20240;-56
2023/01/02 12:21:23;;;;;;;5.67;4.30;;;15.20;1.00;;;;;;6282359;28;20724;-56
2023/01/02 12:24:54;;;;;;;4.73;4.33;;;15.10;1.00;;;;;;6278009;28;20471;-56
2023/01/02 12:28:03;;;;;;;7.83;4.40;;;15.10;1.00;;;;;;6279630;28;20252;-56
2023/01/02 12:31:23;;;;;;;6.00;4.10;;;15.10;1.00;;;;;;6282270;28;20241;-57
2023/01/02 12:34:50;;;;;;;6.93;4.43;;;15.00;1.00;;;;;;6285958;28;20236;-56
2023/01/02 12:37:57;;;;;;;7.63;4.30;;;15.00;1.00;;;;;;6290228;28;20287;-57
2023/01/02 12:41:18;;;;;;;4.53;4.17;;;15.10;1.00;;;;;;6290603;28;20237;-58
2023/01/02 12:44:38;;;;;;;5.70;4.27;;;15.10;1.00;;;;;;6292795;28;20230;-56
2023/01/02 12:48:04;;;;;;;4.77;4.27;;;15.10;1.00;;;;;;6289391;28;20233;-57
2023/01/02 12:51:15;;;;;;;8.53;4.07;;;15.10;1.00;;;;;;6282842;28;20271;-57
2023/01/02 12:54:47;;;;;;;5.77;3.70;;;15.10;1.00;;;;;;6285749;28;20228;-56
2023/01/02 12:57:58;;;;;;;7.10;4.70;;;15.10;1.00;;;;;;6274849;28;20354;-56
2023/01/02 13:01:11;;;;;;;4.70;4.03;;;15.00;1.00;;;;;;6282695;28;20244;-56
2023/01/02 13:04:20;;;;;;;7.93;4.20;;;14.90;1.00;;;;;;6276719;28;20409;-56
2023/01/02 13:07:30;;;;;;;4.87;4.00;;;14.90;1.00;;;;;;6277873;28;20235;-55
2023/01/02 13:10:34;;;;;;;6.13;4.33;;;14.80;1.00;;;;;;6276377;28;20725;-56
2023/01/02 13:13:38;;;;;;;7.70;4.40;;;14.90;1.00;;;;;;6284106;28;20233;-56
2023/01/02 13:16:45;;;;;;;9.20;4.30;;;14.80;1.00;;;;;;6279494;28;20649;-57
2023/01/02 13:19:53;;;;;;;6.80;4.23;;;14.80;1.00;;;;;;6281119;28;20429;-57
2023/01/02 13:23:04;;;;;;;9.63;4.33;;;14.90;1.00;;;;;;6284177;28;20229;-56
2023/01/02 13:26:11;;;;;;;8.17;4.03;;;14.80;1.00;;;;;;6276651;28;20554;-57
2023/01/02 13:29:28;;;;;;;7.93;4.83;;;14.80;1.00;;;;;;6279203;28;20232;-56
2023/01/02 13:32:32;;;;;;;6.10;4.10;;;14.90;1.00;;;;;;6286835;28;20233;-57
2023/01/02 13:35:37;;;;;;;5.70;4.50;;;14.90;1.00;;;;;;6274650;28;20230;-56
2023/01/02 13:38:41;;;;;;;7.37;4.77;;;14.90;1.00;;;;;;6277601;28;20233;-57
2023/01/02 13:45:15;;;;;;;5.97;4.13;;;14.90;1.00;;;;;;6279143;28;20234;-56
2023/01/02 13:48:22;;;;;;;5.77;4.10;;;14.90;1.00;;;;;;6289156;28;20605;-58
2023/01/02 13:51:28;;;;;;;4.77;4.37;;;14.90;1.00;;;;;;6281828;28;20233;-56
2023/01/02 13:54:36;;;;;;;7.37;4.27;;;14.90;1.00;;;;;;6287122;28;20252;-56
2023/01/02 13:57:41;;;;;;;4.93;4.40;;;14.80;1.00;;;;;;6280746;28;20241;-57
2023/01/02 14:00:45;;;;;;;4.67;4.23;;;14.80;1.00;;;;;;6285862;28;20649;-56
2023/01/02 14:04:32;;;;;;;6.50;4.73;;;14.90;1.00;;;;;;6273332;28;20277;-56
2023/01/02 14:07:48;;;;;;;6.33;3.93;;;14.90;1.00;;;;;;6278314;28;20237;-56
2023/01/02 14:10:53;;;;;;;5.43;4.13;;;14.80;1.00;;;;;;6280403;28;20233;-56
2023/01/02 14:13:59;;;;;;;5.10;4.37;;;14.80;1.00;;;;;;6282642;28;20232;-57
2023/01/02 14:17:13;;;;;;;9.77;4.60;;;14.80;1.00;;;;;;6280264;28;20589;-57
2023/01/02 14:20:21;;;;;;;4.83;4.07;;;14.80;1.00;;;;;;6282901;28;20233;-57
2023/01/02 14:23:28;;;;;;;6.17;4.17;;;14.90;1.00;;;;;;6287746;28;20355;-58
2023/01/02 14:26:35;;;;;;;7.20;4.63;;;14.90;1.00;;;;;;6281120;28;20252;-57
2023/01/02 14:29:47;;;;;;;7.07;4.80;;;14.90;1.00;;;;;;6276016;28;20265;-57
2023/01/02 14:32:57;;;;;;;12.23;5.17;;;14.90;1.00;;;;;;6279968;28;20371;-57
2023/01/02 14:36:04;;;;;;;12.77;4.50;;;14.80;1.00;;;;;;6272006;28;20244;-56
2023/01/02 14:39:18;;;;;;;6.37;4.40;;;14.90;1.00;;;;;;6278732;28;20233;-57
2023/01/02 14:45:58;;;;;;;6.90;4.73;;;15.00;1.00;;;;;;6238458;28;20313;-55
2023/01/02 14:49:06;;;;;;;6.67;4.97;;;14.90;1.00;;;;;;6285715;28;20249;-58
2023/01/02 14:52:32;;;;;;;10.27;4.43;;;15.00;1.00;;;;;;6277694;28;20241;-56
2023/01/02 14:55:39;;;;;;;9.73;4.50;;;15.00;1.00;;;;;;6289921;28;20523;-58
2023/01/02 14:58:46;;;;;;;10.13;4.63;;;15.00;1.00;;;;;;6280276;28;20257;-56
2023/01/02 15:01:55;;;;;;;9.30;4.20;;;15.00;1.00;;;;;;6278084;28;20233;-56
2023/01/02 15:05:05;;;;;;;5.27;4.17;;;15.00;1.00;;;;;;6287016;28;20612;-57
2023/01/02 15:08:13;;;;;;;8.00;4.40;;;15.00;1.00;;;;;;6274898;28;20268;-58
2023/01/02 15:14:41;;;;;;;6.57;3.60;;;15.00;1.00;;;;;;6279838;28;20478;-57
2023/01/02 15:17:47;;;;;;;6.90;4.27;;;15.00;1.00;;;;;;6270984;28;20444;-56
2023/01/02 15:20:51;;;;;;;7.53;4.03;;;15.00;1.00;;;;;;6273890;28;20738;-55
2023/01/02 15:23:55;;;;;;;4.37;4.07;;;15.10;1.00;;;;;;6287688;28;20245;-57
2023/01/02 15:27:13;;;;;;;6.87;4.07;;;15.00;1.00;;;;;;6282428;28;20257;-56
2023/01/02 15:30:28;;;;;;;8.43;3.87;;;15.00;1.00;;;;;;6269889;28;20238;-56
2023/01/02 15:33:34;;;;;;;3.77;3.43;;;15.00;1.00;;;;;;6284321;28;20691;-56
2023/01/02 15:36:39;;;;;;;5.67;3.70;;;15.00;1.00;;;;;;6283321;28;20233;-57
2023/01/02 15:39:45;;;;;;;5.40;3.40;;;14.90;1.00;;;;;;6282687;28;20237;-55
2023/01/02 15:46:09;;;;;;;5.27;3.30;;;14.80;1.00;;;;;;6281371;28;20477;-57
2023/01/02 15:49:15;;;;;;;3.47;3.03;;;14.80;1.00;;;;;;6287100;28;20229;-57
2023/01/02 15:52:23;;;;;;;3.03;2.83;;;14.70;1.00;;;;;;6282049;28;20225;-56
2023/01/02 15:55:30;;;;;;;3.47;3.03;;;14.60;1.00;;;;;;6276799;28;20738;-57
2023/01/02 15:58:35;;;;;;;5.60;2.90;;;14.60;1.00;;;;;;6275547;28;20248;-56
2023/01/02 16:01:44;;;;;;;4.17;2.80;;;14.50;1.00;;;;;;6291331;28;20229;-56
2023/01/02 16:05:06;;;;;;;3.50;2.70;;;14.40;1.00;;;;;;6276965;28;20241;-58
2023/01/02 16:08:18;;;;;;;3.20;2.60;;;14.30;1.00;;;;;;6272651;28;20261;-56
2023/01/02 16:11:22;;;;;;;3.37;2.77;;;14.30;1.00;;;;;;6275870;28;20234;-57
2023/01/02 16:14:32;;;;;;;3.90;2.93;;;14.20;1.00;;;;;;6277922;28;20229;-56
2023/01/02 16:17:39;;;;;;;2.90;2.80;;;14.10;1.00;;;;;;6281075;28;20236;-57
2023/01/02 16:20:48;;;;;;;3.37;3.10;;;14.10;1.00;;;;;;6281201;28;20243;-57
2023/01/02 16:23:54;;;;;;;3.00;2.80;;;14.00;1.00;;;;;;6283522;28;20252;-56
2023/01/02 16:26:58;;;;;;;2.77;2.60;;;14.00;1.00;;;;;;6285849;28;20230;-60
2023/01/02 16:30:15;;;;;;;2.73;2.53;;;14.00;1.00;;;;;;6267489;28;20727;-56
2023/01/02 16:33:22;;;;;;;2.77;2.67;;;13.90;1.00;;;;;;6284938;28;20816;-57
2023/01/02 16:36:28;;;;;;;2.83;2.73;;;13.80;1.00;;;;;;6282954;28;20340;-57
2023/01/02 16:39:43;;;;;;;3.33;2.50;;;13.80;1.00;;;;;;6279226;28;20283;-56
2023/01/02 16:42:46;;;;;;;3.07;2.60;;;13.80;1.00;;;;;;6283771;28;20229;-57
2023/01/02 16:45:51;;;;;;;2.70;2.70;;;13.70;1.00;;;;;;6270384;28;20241;-56